< < Back
Terminal Aerodrome Forecast


Current Version              Previous Versions:   1  2  3  4  5  6  7  8  9  

Terminal Aerodrome Forecast

839
FTUS42 KTAE 300500
TAFVLD
TAF
KVLD 300520Z 3006/3106 VRB04KT P6SM FEW060 SCT250=



Latest METAR

740
SAUS70 KWBC 301700 RRC
MTRVLD
METAR KVLD 301653Z VRB04KT 10SM SCT060 33/13 A3001 RMK AO2 SLP166
T03280128


USA.gov is the U.S. government's official web portal to all federal, state and local government web resources and services.